Time;durP1;ratioP1;P1;durP2;ratioP2;P2;SDS_P1;SDS_P2;PMS_P1;PMS_P2;Temp;Humidity;BMP_temperature;BMP_pressure;BME280_temperature;BME280_humidity;BME280_pressure;Samples;Min_cycle;Max_cycle;Signal;HPM_P1;HPM_P2
2023/01/15 00:01:19;;;;;;;7.68;6.00;;;;;;;6.49;54.56;98719.09;5108185;28;20054;-71
2023/01/15 00:03:47;;;;;;;7.15;5.82;;;;;;;6.48;54.07;98706.88;5109251;28;20040;-71
2023/01/15 00:06:16;;;;;;;7.72;5.88;;;;;;;4.92;54.04;98439.22;5109101;28;20299;-71
2023/01/15 00:08:44;;;;;;;9.38;5.85;;;;;;;6.50;54.10;98705.00;5108027;28;20032;-71
2023/01/15 00:11:12;;;;;;;6.55;5.70;;;;;;;6.52;54.06;98704.94;5109166;28;20046;-70
2023/01/15 00:13:39;;;;;;;8.90;6.68;;;;;;;6.00;54.05;98705.66;5108802;28;20063;-71
2023/01/15 00:16:07;;;;;;;9.02;6.65;;;;;;;6.56;54.11;98682.81;5108754;28;20042;-71
2023/01/15 00:18:33;;;;;;;7.80;6.32;;;;;;;6.58;54.06;98676.53;5108850;28;20047;-71
2023/01/15 00:21:01;;;;;;;7.88;5.75;;;;;;;6.65;54.00;98672.66;5109192;28;20055;-71
2023/01/15 00:29:00;;;;;;;8.88;7.10;;;;;;;6.47;54.54;98652.53;5108747;28;20071;-71
2023/01/15 00:31:28;;;;;;;14.00;10.18;;;;;;;6.64;54.30;98686.75;5107472;28;20050;-71
2023/01/15 00:33:54;;;;;;;11.48;8.35;;;;;;;6.67;54.33;98676.06;5107557;28;20036;-71
2023/01/15 00:36:22;;;;;;;10.45;8.18;;;;;;;6.66;54.37;98679.63;5108806;28;20056;-70
2023/01/15 00:38:51;;;;;;;9.57;6.75;;;;;;;5.21;54.36;98433.44;5108700;28;20054;-70
2023/01/15 00:41:18;;;;;;;8.65;6.18;;;;;;;6.63;54.45;98669.25;5108452;28;20039;-70
2023/01/15 00:43:45;;;;;;;7.93;6.65;;;;;;;6.66;54.41;98669.09;5108495;28;20055;-71
2023/01/15 00:46:11;;;;;;;8.57;6.10;;;;;;;6.42;54.52;98630.84;5107204;28;20052;-71
2023/01/15 00:48:39;;;;;;;7.40;6.38;;;;;;;6.66;54.61;98674.38;5108455;28;20118;-71
2023/01/15 00:51:06;;;;;;;7.57;6.13;;;;;;;1.42;54.32;97788.22;5107130;28;20039;-71
2023/01/15 00:53:33;;;;;;;9.05;7.25;;;;;;;6.68;54.20;98669.88;5107929;28;20061;-71
2023/01/15 00:56:01;;;;;;;6.60;5.45;;;;;;;6.68;54.62;98674.28;5108402;28;20035;-71
2023/01/15 00:58:29;;;;;;;7.35;5.40;;;;;;;5.54;54.29;98491.38;5107655;28;20119;-71
2023/01/15 01:00:59;;;;;;;8.13;6.28;;;;;;;5.33;54.44;98463.53;5106775;28;20051;-71
2023/01/15 01:03:27;;;;;;;6.70;5.45;;;;;;;6.78;54.41;98658.88;5108097;28;20040;-71
2023/01/15 01:05:59;;;;;;;8.18;5.93;;;;;;;6.77;54.58;98651.91;5108098;28;20039;-70
2023/01/15 01:08:26;;;;;;;8.35;6.78;;;;;;;6.73;54.60;98657.34;5107712;28;20294;-70
2023/01/15 01:11:03;;;;;;;9.27;6.78;;;;;;;6.74;55.06;98658.19;5108222;28;20036;-71
2023/01/15 01:13:30;;;;;;;7.38;5.90;;;;;;;4.34;54.56;98239.84;5108290;28;20199;-71
2023/01/15 01:15:57;;;;;;;10.05;5.82;;;;;;;6.05;54.67;98518.69;5108057;28;20107;-71
2023/01/15 01:18:23;;;;;;;7.13;6.00;;;;;;;6.82;54.65;98650.78;5107849;28;20306;-72
2023/01/15 01:20:50;;;;;;;8.68;5.82;;;;;;;6.83;54.68;98641.94;5107758;28;20048;-71
2023/01/15 01:23:17;;;;;;;7.22;6.30;;;;;;;6.85;54.64;98633.97;5107617;28;20044;-71
2023/01/15 01:25:45;;;;;;;7.45;5.82;;;;;;;6.86;54.58;98636.53;5106273;28;20036;-72
2023/01/15 01:28:13;;;;;;;7.82;6.28;;;;;;;6.87;54.57;98626.84;5106559;28;20295;-72
2023/01/15 01:30:40;;;;;;;7.50;5.70;;;;;;;6.88;54.65;98620.63;5107900;28;20047;-72
2023/01/15 01:33:07;;;;;;;7.82;6.60;;;;;;;6.86;54.82;98620.72;5106862;28;20092;-72
2023/01/15 01:35:34;;;;;;;7.53;5.45;;;;;;;5.89;55.31;98458.09;5107064;28;20044;-72
2023/01/15 01:38:01;;;;;;;8.88;7.05;;;;;;;6.84;55.12;98621.72;5107195;28;20054;-72
2023/01/15 01:40:28;;;;;;;7.47;6.40;;;;;;;5.00;55.23;98330.28;5089607;28;20040;-71
2023/01/15 01:42:54;;;;;;;8.43;6.57;;;;;;;6.12;55.26;98522.69;5106112;28;20063;-72
2023/01/15 01:45:28;;;;;;;7.70;6.57;;;;;;;6.84;55.62;98619.09;5105797;28;20044;-71
2023/01/15 01:48:01;;;;;;;7.78;6.85;;;;;;;6.28;55.54;98520.16;5107527;28;20048;-72
2023/01/15 01:50:32;;;;;;;7.57;6.10;;;;;;;6.77;55.55;98601.88;5106124;28;20039;-71
2023/01/15 01:53:03;;;;;;;10.68;7.10;;;;;;;4.41;55.65;98200.13;5106024;28;20105;-72
2023/01/15 01:55:33;;;;;;;8.25;6.43;;;;;;;6.70;55.89;98591.66;5106768;28;20040;-73
2023/01/15 01:58:04;;;;;;;8.32;6.82;;;;;;;6.68;56.07;98585.63;5106705;28;20035;-72
2023/01/15 02:00:35;;;;;;;8.63;6.53;;;;;;;6.66;56.37;98584.00;5106679;28;20330;-72
2023/01/15 02:03:04;;;;;;;9.25;7.57;;;;;;;6.66;56.23;98568.19;5106546;28;20048;-72
2023/01/15 02:05:33;;;;;;;8.23;7.13;;;;;;;6.63;56.38;98565.72;5105813;28;20303;-71
2023/01/15 02:08:01;;;;;;;10.98;7.55;;;;;;;6.65;56.51;98558.59;5106023;28;20134;-72
2023/01/15 02:10:28;;;;;;;9.32;7.75;;;;;;;6.63;56.67;98568.34;5106831;28;20047;-72
2023/01/15 02:13:00;;;;;;;8.43;7.05;;;;;;;6.60;56.87;98568.50;5105633;28;20054;-72
2023/01/15 02:15:32;;;;;;;9.02;6.85;;;;;;;5.55;56.92;98387.97;5106891;28;20035;-72
2023/01/15 02:18:10;;;;;;;9.10;7.25;;;;;;;6.56;58.00;98553.81;5105610;28;20050;-72
2023/01/15 02:20:41;;;;;;;8.90;7.25;;;;;;;6.53;57.64;98551.31;5105503;28;20035;-72
2023/01/15 02:23:27;;;;;;;8.88;6.97;;;;;;;5.36;58.66;98377.50;5105645;28;20050;-72
2023/01/15 02:26:22;;;;;;;9.43;6.55;;;;;;;6.25;59.29;98536.09;5106239;28;20036;-72
2023/01/15 02:28:53;;;;;;;8.23;7.35;;;;;;;6.40;58.35;98559.00;5105394;28;20119;-72
2023/01/15 02:31:27;;;;;;;10.05;7.70;;;;;;;6.20;58.58;98509.16;5105812;28;20047;-72
2023/01/15 02:34:00;;;;;;;8.85;6.68;;;;;;;6.37;58.29;98554.75;5106090;28;20055;-72
2023/01/15 02:36:31;;;;;;;8.70;6.45;;;;;;;6.35;58.44;98550.47;5105078;28;20200;-72
2023/01/15 02:39:01;;;;;;;10.35;5.97;;;;;;;5.22;58.51;98387.00;5105140;28;20322;-72
2023/01/15 02:41:32;;;;;;;10.32;6.40;;;;;;;6.31;58.99;98548.94;5105432;28;20032;-72
2023/01/15 02:44:02;;;;;;;8.40;6.20;;;;;;;6.29;59.25;98535.00;5105089;28;20032;-72
2023/01/15 02:46:32;;;;;;;7.03;6.32;;;;;;;6.27;58.95;98534.22;5105721;28;20062;-72
2023/01/15 02:49:03;;;;;;;9.90;7.25;;;;;;;6.25;58.97;98536.09;5104999;28;20053;-71
2023/01/15 02:51:37;;;;;;;7.75;6.75;;;;;;;6.23;59.04;98530.06;5105897;28;20112;-72
2023/01/15 02:54:10;;;;;;;8.95;6.75;;;;;;;6.23;59.49;98522.16;5105795;28;20058;-72
2023/01/15 02:56:38;;;;;;;9.93;6.90;;;;;;;6.22;59.25;98530.97;5105253;28;20036;-72
2023/01/15 02:59:11;;;;;;;7.47;5.72;;;;;;;6.21;59.41;98534.53;5104847;28;20079;-72
2023/01/15 03:01:44;;;;;;;8.93;5.93;;;;;;;6.17;60.23;98523.31;5104885;28;20321;-72
2023/01/15 03:04:17;;;;;;;7.03;6.15;;;;;;;5.72;59.95;98442.31;5104955;28;20071;-72
2023/01/15 03:06:49;;;;;;;7.47;6.68;;;;;;;6.16;59.80;98520.75;5105771;28;20275;-72
2023/01/15 03:09:18;;;;;;;7.45;6.18;;;;;;;6.17;59.62;98515.44;5104609;28;20106;-72
2023/01/15 03:11:49;;;;;;;7.57;6.22;;;;;;;6.12;60.53;98512.19;5105843;28;20107;-72
2023/01/15 03:14:21;;;;;;;7.70;5.40;;;;;;;6.12;60.14;98508.69;5105083;28;20326;-72
2023/01/15 03:16:52;;;;;;;7.93;6.03;;;;;;;6.10;60.58;98499.09;5104636;28;20054;-72
2023/01/15 03:19:26;;;;;;;7.05;6.03;;;;;;;6.07;60.99;98493.16;5106133;28;20054;-72
2023/01/15 03:21:57;;;;;;;7.35;5.95;;;;;;;6.06;60.63;98487.03;5106083;28;20050;-72
2023/01/15 03:24:31;;;;;;;7.45;6.03;;;;;;;6.04;61.06;98485.41;5105825;28;20078;-71
2023/01/15 03:26:58;;;;;;;;;;;;;;;6.01;62.77;98481.16;5105110;28;20244;-71
2023/01/15 03:29:30;;;;;;;6.47;5.25;;;;;;;5.99;60.75;98480.38;5105397;28;19995;-72
2023/01/15 03:31:59;;;;;;;7.78;5.78;;;;;;;5.91;60.13;98447.50;5104796;28;20040;-72
2023/01/15 03:34:29;;;;;;;7.97;6.15;;;;;;;6.07;60.22;98459.78;5106019;28;20302;-71
2023/01/15 03:36:55;;;;;;;10.85;6.72;;;;;;;5.84;60.27;98425.06;5105293;28;20040;-71
2023/01/15 03:39:22;;;;;;;7.03;5.55;;;;;;;5.81;60.28;98423.44;5104828;28;20036;-72
2023/01/15 03:42:03;;;;;;;7.05;5.30;;;;;;;6.05;61.12;98461.66;5104789;28;20044;-72
2023/01/15 03:44:41;;;;;;;8.00;5.18;;;;;;;6.06;61.10;98458.09;5104292;28;20036;-72
2023/01/15 03:47:20;;;;;;;7.25;5.50;;;;;;;6.07;61.21;98449.28;5105562;28;20284;-72
2023/01/15 03:49:56;;;;;;;7.97;6.15;;;;;;;5.33;61.12;98322.50;5105276;28;20044;-72
2023/01/15 03:52:29;;;;;;;7.35;6.55;;;;;;;6.00;61.19;98445.25;5105558;28;20094;-72
2023/01/15 03:55:06;;;;;;;8.80;6.47;;;;;;;5.97;61.33;98445.41;5104422;28;20047;-72
2023/01/15 03:57:39;;;;;;;7.25;5.90;;;;;;;5.64;61.11;98389.28;5104289;28;20330;-72
2023/01/15 04:00:15;;;;;;;9.27;6.70;;;;;;;5.96;61.61;98448.97;5103706;28;20242;-72
2023/01/15 04:02:44;;;;;;;6.60;5.50;;;;;;;6.01;60.48;98461.88;5104341;28;20374;-72
2023/01/15 04:05:13;;;;;;;6.00;5.20;;;;;;;5.73;60.08;98404.59;5105654;28;20123;-72
2023/01/15 04:07:41;;;;;;;7.22;5.05;;;;;;;6.07;60.26;98472.09;5108089;28;20192;-72
2023/01/15 04:10:09;;;;;;;7.20;5.22;;;;;;;6.06;60.24;98467.75;5108833;28;20107;-72
2023/01/15 04:12:36;;;;;;;7.68;5.43;;;;;;;6.07;60.25;98461.56;5109079;28;20066;-72
2023/01/15 04:15:04;;;;;;;7.55;5.43;;;;;;;6.07;60.29;98472.09;5108730;28;20036;-72
2023/01/15 04:17:32;;;;;;;6.25;5.53;;;;;;;6.07;60.42;98469.47;5107796;28;20039;-72
2023/01/15 04:19:59;;;;;;;7.32;5.75;;;;;;;6.04;60.45;98462.59;5109167;28;20046;-72
2023/01/15 04:22:25;;;;;;;6.43;5.32;;;;;;;6.05;60.50;98450.28;5108866;28;20044;-72
2023/01/15 04:24:53;;;;;;;6.68;5.15;;;;;;;6.07;60.39;98454.53;5108546;28;20048;-72
2023/01/15 04:27:20;;;;;;;6.55;5.50;;;;;;;6.07;60.26;98446.66;5107732;28;20032;-72
2023/01/15 04:29:47;;;;;;;5.78;4.93;;;;;;;6.06;60.42;98444.94;5107594;28;20036;-72
2023/01/15 04:32:14;;;;;;;6.68;5.07;;;;;;;5.78;60.48;98399.94;5108453;28;20062;-72
2023/01/15 04:34:42;;;;;;;6.43;4.90;;;;;;;6.00;60.59;98429.47;5107582;28;20102;-72
2023/01/15 04:37:09;;;;;;;6.40;5.18;;;;;;;6.01;60.53;98431.19;5107326;28;20036;-72
2023/01/15 04:39:36;;;;;;;8.27;5.70;;;;;;;6.00;60.45;98436.50;5107306;28;20060;-72
2023/01/15 04:44:48;;;;;;;9.55;6.90;;;;;;;5.97;60.55;98442.78;5108442;28;20211;-72
2023/01/15 04:47:15;;;;;;;7.28;5.40;;;;;;;5.97;60.59;98434.88;5107268;28;20028;-72
2023/01/15 04:49:43;;;;;;;6.32;5.25;;;;;;;5.77;60.43;98393.84;5108104;28;20039;-72
2023/01/15 04:52:10;;;;;;;5.70;4.63;;;;;;;5.96;60.49;98414.78;5108279;28;20210;-72
2023/01/15 04:54:37;;;;;;;6.82;4.85;;;;;;;5.95;60.57;98420.97;5107190;28;20032;-72
2023/01/15 04:57:04;;;;;;;6.63;5.43;;;;;;;5.93;60.69;98427.25;5108200;28;20042;-72
2023/01/15 04:59:31;;;;;;;6.63;5.47;;;;;;;5.91;60.72;98426.47;5108005;28;20343;-72
2023/01/15 05:01:58;;;;;;;9.60;5.70;;;;;;;5.89;60.89;98418.66;5107924;28;20123;-72
2023/01/15 05:04:25;;;;;;;8.05;5.93;;;;;;;5.91;60.68;98432.56;5107809;28;20051;-72
2023/01/15 05:06:55;;;;;;;7.53;5.82;;;;;;;5.93;61.11;98440.38;5107919;28;20050;-71
2023/01/15 05:09:22;;;;;;;10.00;6.35;;;;;;;5.90;60.80;98425.63;5090239;28;20051;-72
2023/01/15 05:11:49;;;;;;;6.90;5.47;;;;;;;5.91;60.81;98424.69;5107656;28;20103;-72
2023/01/15 05:14:15;;;;;;;6.47;5.28;;;;;;;5.91;60.71;98418.56;5106784;28;20131;-72
2023/01/15 05:16:42;;;;;;;7.50;5.85;;;;;;;5.89;60.92;98416.03;5108038;28;20044;-72
2023/01/15 05:19:10;;;;;;;7.28;5.30;;;;;;;5.89;60.80;98425.69;5106809;28;20040;-71
2023/01/15 05:21:41;;;;;;;10.05;5.20;;;;;;;5.85;61.23;98405.75;5107799;28;20207;-72
2023/01/15 05:24:13;;;;;;;7.13;5.15;;;;;;;5.83;61.25;98405.81;5107400;28;20063;-72
2023/01/15 05:26:40;;;;;;;6.65;5.38;;;;;;;4.75;60.92;98266.72;5106511;28;20051;-72
2023/01/15 05:29:07;;;;;;;7.20;5.20;;;;;;;5.77;60.90;98411.38;5106168;28;20062;-72
2023/01/15 05:31:34;;;;;;;6.00;4.68;;;;;;;5.80;60.97;98416.50;5107587;28;20050;-72
2023/01/15 05:34:01;;;;;;;5.53;4.35;;;;;;;5.80;60.94;98403.34;5107203;28;20040;-72
2023/01/15 05:36:30;;;;;;;6.10;4.97;;;;;;;4.87;60.93;98267.91;5107324;28;20051;-72
2023/01/15 05:39:00;;;;;;;6.88;4.80;;;;;;;4.87;60.72;98244.25;5107375;28;20035;-72
2023/01/15 05:44:14;;;;;;;7.03;4.93;;;;;;;4.74;60.70;98255.38;5106143;28;20304;-72
2023/01/15 05:46:44;;;;;;;7.03;5.00;;;;;;;5.57;60.73;98370.34;5106747;28;20040;-72
2023/01/15 05:49:13;;;;;;;6.50;4.72;;;;;;;5.19;60.73;98316.22;5106868;28;20043;-72
2023/01/15 05:51:41;;;;;;;6.18;4.90;;;;;;;5.78;60.79;98419.19;5106849;28;20040;-72
2023/01/15 05:54:11;;;;;;;6.35;4.75;;;;;;;5.74;60.93;98409.75;5106850;28;20123;-72
2023/01/15 05:56:39;;;;;;;6.68;5.30;;;;;;;5.71;61.05;98420.44;5107004;28;20044;-73
2023/01/15 05:59:08;;;;;;;6.57;4.95;;;;;;;5.71;60.93;98416.97;5106189;28;20039;-72
2023/01/15 06:01:35;;;;;;;6.20;5.03;;;;;;;5.70;61.03;98420.50;5106153;28;20052;-72
2023/01/15 06:04:03;;;;;;;7.72;5.65;;;;;;;5.66;61.11;98419.81;5106957;28;20044;-72
2023/01/15 06:06:30;;;;;;;5.90;4.68;;;;;;;4.72;61.15;98274.75;5106872;28;20050;-72
2023/01/15 06:08:57;;;;;;;5.55;4.10;;;;;;;5.61;61.28;98434.97;5106917;28;20078;-72
2023/01/15 06:11:24;;;;;;;5.63;4.43;;;;;;;5.61;61.22;98455.16;5106542;28;20040;-72
2023/01/15 06:13:52;;;;;;;6.38;4.57;;;;;;;5.28;61.31;98392.81;5106748;28;20065;-72
2023/01/15 06:16:19;;;;;;;5.78;4.45;;;;;;;5.38;60.96;98406.34;5106732;28;20330;-71
2023/01/15 06:18:47;;;;;;;5.45;4.13;;;;;;;5.19;60.95;98380.13;5106392;28;20055;-72
2023/01/15 06:21:14;;;;;;;6.55;5.43;;;;;;;3.56;60.74;98094.09;5106947;28;20043;-72
2023/01/15 06:23:42;;;;;;;8.80;4.93;;;;;;;5.36;60.84;98406.41;5105439;28;20040;-73
2023/01/15 06:26:12;;;;;;;4.95;3.92;;;;;;;5.65;61.33;98430.41;5105715;28;20044;-72
2023/01/15 06:28:39;;;;;;;5.70;4.13;;;;;;;5.63;61.15;98446.25;5106237;28;20098;-72
2023/01/15 06:31:09;;;;;;;7.75;4.70;;;;;;;4.59;61.13;98324.34;5105530;28;20325;-72
2023/01/15 06:33:36;;;;;;;5.57;4.55;;;;;;;5.59;61.10;98443.84;5106691;28;20223;-72
2023/01/15 06:36:05;;;;;;;5.60;4.72;;;;;;;5.59;61.22;98438.59;5106411;28;20291;-72
2023/01/15 06:38:33;;;;;;;6.35;5.55;;;;;;;4.79;61.18;98342.63;5105115;28;20040;-72
2023/01/15 06:41:00;;;;;;;6.43;4.82;;;;;;;5.57;61.25;98435.19;5106041;28;20036;-72
2023/01/15 06:48:57;;;;;;;6.35;4.85;;;;;;;5.55;61.34;98434.41;5105985;28;20093;-72
2023/01/15 06:51:25;;;;;;;5.93;4.90;;;;;;;5.59;61.27;98439.44;5105431;28;20040;-71
2023/01/15 06:53:51;;;;;;;7.97;5.10;;;;;;;5.25;61.31;98376.34;5105018;28;20107;-72
2023/01/15 06:56:19;;;;;;;7.22;5.43;;;;;;;5.54;61.48;98424.84;5104944;28;20313;-72
2023/01/15 06:58:45;;;;;;;5.13;4.28;;;;;;;5.47;61.65;98426.91;5106245;28;20035;-72
2023/01/15 07:01:15;;;;;;;6.15;4.80;;;;;;;5.48;61.84;98423.34;5106340;28;20067;-72
2023/01/15 07:03:42;;;;;;;6.25;4.50;;;;;;;5.47;61.86;98407.66;5106264;28;20048;-72
2023/01/15 07:06:11;;;;;;;5.40;4.07;;;;;;;5.44;61.67;98419.19;5106241;28;20040;-72
2023/01/15 07:08:38;;;;;;;6.03;5.25;;;;;;;5.33;61.63;98395.22;5104903;28;20048;-72
2023/01/15 07:11:07;;;;;;;9.32;5.30;;;;;;;5.43;61.86;98407.81;5104796;28;20089;-71
2023/01/15 07:13:34;;;;;;;5.88;4.57;;;;;;;4.60;61.90;98265.69;5105666;28;20039;-72
2023/01/15 07:16:02;;;;;;;6.53;4.85;;;;;;;5.40;62.04;98397.47;5105880;28;20036;-72
2023/01/15 07:18:32;;;;;;;9.63;5.63;;;;;;;5.40;62.46;98384.31;5106056;28;20039;-72
2023/01/15 07:21:00;;;;;;;6.07;5.22;;;;;;;5.45;62.20;98386.72;5105500;28;20047;-72
2023/01/15 07:23:28;;;;;;;6.30;5.15;;;;;;;5.39;62.51;98390.50;5105810;28;20299;-72
2023/01/15 07:25:55;;;;;;;8.50;5.93;;;;;;;4.60;62.77;98262.22;5106102;28;20351;-72
2023/01/15 07:28:24;;;;;;;6.72;5.38;;;;;;;5.37;62.61;98386.25;5104521;28;20300;-72
2023/01/15 07:30:51;;;;;;;6.80;4.75;;;;;;;5.40;62.52;98386.94;5105456;28;20089;-72
2023/01/15 07:33:17;;;;;;;5.47;4.65;;;;;;;5.36;62.83;98368.78;5105589;28;20300;-72
2023/01/15 07:35:46;;;;;;;6.03;4.88;;;;;;;5.39;63.33;98374.72;5104828;28;20053;-72
2023/01/15 07:38:13;;;;;;;6.13;4.65;;;;;;;5.42;63.10;98390.34;5104425;28;20042;-72
2023/01/15 07:40:39;;;;;;;6.60;5.60;;;;;;;5.40;63.24;98384.31;5105630;28;20040;-72
2023/01/15 07:51:21;;;;;;;6.25;4.40;;;;;;;5.34;64.08;98392.50;5109546;28;20051;-72
2023/01/15 07:53:49;;;;;;;6.93;5.75;;;;;;;5.31;64.14;98387.41;5109442;28;20200;-72
2023/01/15 07:56:15;;;;;;;7.18;5.13;;;;;;;5.33;63.96;98377.66;5108256;28;20040;-72
2023/01/15 07:58:47;;;;;;;5.55;4.88;;;;;;;5.36;64.00;98379.28;5109900;28;20040;-72
2023/01/15 08:01:15;;;;;;;9.27;4.80;;;;;;;5.36;64.33;98371.41;5091677;28;20036;-72
2023/01/15 08:03:42;;;;;;;6.38;4.97;;;;;;;5.31;64.56;98370.78;5108959;28;20226;-72
2023/01/15 08:06:08;;;;;;;4.63;3.72;;;;;;;5.21;64.79;98365.13;5109149;28;20300;-72
2023/01/15 08:08:37;;;;;;;4.93;4.15;;;;;;;4.97;64.64;98334.81;5108093;28;20199;-72
2023/01/15 08:16:41;;;;;;;5.25;4.35;;;;;;;5.04;65.41;98367.72;5072629;28;20071;-71
2023/01/15 08:19:07;;;;;;;6.78;4.53;;;;;;;5.02;65.26;98372.22;5109188;28;20046;-71
2023/01/15 08:21:34;;;;;;;7.57;5.85;;;;;;;5.03;65.65;98358.16;5109285;28;20050;-71
2023/01/15 08:24:02;;;;;;;7.90;5.50;;;;;;;5.00;66.04;98345.16;5109030;28;20040;-71
2023/01/15 08:26:29;;;;;;;6.80;5.50;;;;;;;5.01;65.78;98339.00;5109332;28;20074;-71
2023/01/15 08:28:56;;;;;;;7.82;5.65;;;;;;;5.02;65.92;98341.53;5108073;28;20036;-71
2023/01/15 08:31:23;;;;;;;7.65;5.35;;;;;;;5.02;65.84;98346.78;5108884;28;20054;-71
2023/01/15 08:33:49;;;;;;;8.23;5.80;;;;;;;5.01;66.00;98349.50;5108658;28;20046;-72
2023/01/15 08:36:17;;;;;;;6.30;5.00;;;;;;;5.02;65.84;98352.06;5108782;28;20279;-71
2023/01/15 08:38:44;;;;;;;6.80;4.75;;;;;;;5.02;66.07;98351.19;5108985;28;20047;-71
2023/01/15 08:41:12;;;;;;;6.07;4.65;;;;;;;5.00;66.40;98347.78;5107885;28;20040;-71
2023/01/15 08:43:39;;;;;;;5.80;4.53;;;;;;;4.98;66.12;98353.13;5108128;28;20046;-71
2023/01/15 08:46:06;;;;;;;5.72;5.15;;;;;;;4.96;66.38;98356.75;5108493;28;20392;-71
2023/01/15 08:48:33;;;;;;;6.85;5.38;;;;;;;4.92;66.21;98344.69;5107871;28;20032;-71
2023/01/15 08:51:05;;;;;;;7.82;4.95;;;;;;;3.86;67.26;98170.41;5108549;28;20044;-71
2023/01/15 08:53:32;;;;;;;8.10;5.90;;;;;;;4.89;66.62;98361.44;5089140;28;20040;-70
2023/01/15 08:55:59;;;;;;;9.05;5.90;;;;;;;4.25;66.62;98272.63;5106353;28;20044;-71
2023/01/15 08:58:29;;;;;;;10.52;7.13;;;;;;;4.90;66.80;98357.03;5107729;28;20032;-71
2023/01/15 09:00:56;;;;;;;7.85;5.03;;;;;;;4.90;66.26;98376.28;5108339;28;20044;-71
2023/01/15 09:03:23;;;;;;;6.40;5.13;;;;;;;4.87;66.87;98372.91;5106941;28;20054;-71
2023/01/15 09:05:50;;;;;;;7.88;5.20;;;;;;;4.89;66.59;98356.19;5106870;28;20044;-71
2023/01/15 09:08:16;;;;;;;8.20;6.57;;;;;;;4.91;66.66;98369.25;5106880;28;20036;-71
2023/01/15 09:10:43;;;;;;;7.75;4.82;;;;;;;4.93;66.44;98364.78;5107907;28;20048;-71
2023/01/15 09:13:10;;;;;;;8.30;5.35;;;;;;;4.97;66.26;98364.56;5107905;28;20035;-72
2023/01/15 09:15:38;;;;;;;10.43;5.85;;;;;;;0.10;66.13;97541.81;5108136;28;20040;-72
2023/01/15 09:18:05;;;;;;;10.77;5.82;;;;;;;5.03;66.51;98364.25;5108132;28;20055;-71
2023/01/15 09:20:32;;;;;;;7.90;5.28;;;;;;;5.05;66.50;98357.16;5107853;28;20032;-70
2023/01/15 09:22:59;;;;;;;6.40;5.32;;;;;;;5.07;66.44;98365.81;5106711;28;20063;-71
2023/01/15 09:25:26;;;;;;;8.10;6.05;;;;;;;5.07;67.17;98378.09;5090087;28;20062;-71
2023/01/15 09:27:55;;;;;;;7.13;5.53;;;;;;;5.04;67.53;98362.47;5107252;28;20307;-72
2023/01/15 09:30:23;;;;;;;7.22;5.50;;;;;;;5.03;66.62;98369.50;5107509;28;20306;-72
2023/01/15 09:32:51;;;;;;;5.82;4.97;;;;;;;5.04;66.87;98373.00;5106451;28;20346;-72
2023/01/15 09:35:18;;;;;;;5.65;4.50;;;;;;;5.09;67.02;98371.00;5107161;28;20032;-72
2023/01/15 09:37:50;;;;;;;9.35;5.38;;;;;;;5.08;68.38;98364.03;5107457;28;20046;-72
2023/01/15 09:40:32;;;;;;;7.53;4.55;;;;;;;5.07;67.92;98368.44;5106287;28;20203;-72
2023/01/15 09:43:06;;;;;;;8.10;5.40;;;;;;;5.03;67.94;98356.38;5106964;28;20296;-72
2023/01/15 09:45:39;;;;;;;7.78;4.70;;;;;;;-0.91;67.79;97371.59;5106973;28;20357;-72
2023/01/15 09:48:25;;;;;;;7.13;5.32;;;;;;;5.02;69.45;98366.97;5106961;28;20070;-71
2023/01/15 09:51:02;;;;;;;6.25;4.63;;;;;;;4.29;69.03;98233.97;5107379;28;20280;-72
2023/01/15 09:53:39;;;;;;;6.60;4.80;;;;;;;5.03;68.84;98366.03;5106910;28;20044;-71
2023/01/15 09:56:12;;;;;;;8.15;5.88;;;;;;;5.05;67.93;98358.94;5106635;28;20044;-72
2023/01/15 09:58:40;;;;;;;6.28;5.43;;;;;;;5.04;68.03;98355.44;5105805;28;20207;-72
2023/01/15 10:01:14;;;;;;;7.70;5.88;;;;;;;5.04;68.16;98362.47;5107171;28;20051;-72
2023/01/15 10:03:48;;;;;;;6.45;4.75;;;;;;;4.18;68.83;98222.19;5105895;28;20032;-71
2023/01/15 10:06:21;;;;;;;5.57;4.40;;;;;;;4.89;69.66;98350.06;5106826;28;20070;-72
2023/01/15 10:08:49;;;;;;;7.72;5.13;;;;;;;4.87;69.35;98346.66;5106666;28;20032;-71
2023/01/15 10:14:37;;;;;;;5.22;4.32;;;;;;;4.82;70.96;98347.72;5106471;28;20040;-71
2023/01/15 10:17:15;;;;;;;4.97;4.35;;;;;;;4.83;69.46;98359.06;5105607;28;20044;-71
2023/01/15 10:19:43;;;;;;;6.30;4.35;;;;;;;4.84;69.08;98352.06;5105458;28;20333;-71
2023/01/15 10:22:16;;;;;;;5.85;4.72;;;;;;;4.27;69.81;98264.69;5106929;28;20058;-71
2023/01/15 10:24:51;;;;;;;6.40;5.20;;;;;;;3.26;70.56;98087.66;5106542;28;20188;-71
2023/01/15 10:27:22;;;;;;;6.97;4.60;;;;;;;4.87;69.28;98338.78;5105432;28;20062;-72
2023/01/15 10:29:54;;;;;;;6.38;4.85;;;;;;;4.88;69.35;98354.47;5106087;28;20040;-71
2023/01/15 10:32:36;;;;;;;5.55;4.40;;;;;;;4.87;71.12;98347.50;5106241;28;20048;-72
2023/01/15 10:35:16;;;;;;;6.43;5.80;;;;;;;4.90;70.07;98349.16;5106566;28;20046;-72
2023/01/15 10:37:51;;;;;;;6.97;5.32;;;;;;;4.91;69.52;98335.97;5106102;28;20057;-72
2023/01/15 10:40:48;;;;;;;5.88;4.60;;;;;;;4.98;70.78;98326.00;5106099;28;20099;-71
2023/01/15 10:43:22;;;;;;;6.55;5.25;;;;;;;4.99;69.75;98332.97;5094502;28;20351;-71
2023/01/15 10:45:53;;;;;;;7.33;4.93;;;;;;;4.98;69.39;98332.13;5105242;28;20188;-72
2023/01/15 10:48:28;;;;;;;5.55;4.90;;;;;;;4.99;69.10;98317.22;5105045;28;20044;-71
2023/01/15 10:51:00;;;;;;;6.03;5.25;;;;;;;4.35;69.30;98189.09;5105077;28;20032;-71
2023/01/15 10:53:34;;;;;;;9.48;5.32;;;;;;;5.03;69.97;98293.34;5105821;28;20044;-71
2023/01/15 10:56:07;;;;;;;8.57;5.43;;;;;;;5.04;70.32;98289.81;5104882;28;20085;-71
2023/01/15 10:58:39;;;;;;;6.72;5.60;;;;;;;5.03;70.44;98308.25;5105872;28;20300;-71
2023/01/15 11:01:12;;;;;;;7.28;5.47;;;;;;;5.11;70.32;98295.59;5105719;28;20050;-71
2023/01/15 11:03:42;;;;;;;6.97;5.45;;;;;;;5.17;69.85;98281.31;5105745;28;20048;-71
2023/01/15 11:06:14;;;;;;;6.85;5.47;;;;;;;5.19;70.39;98277.69;5105882;28;20044;-71
2023/01/15 11:08:45;;;;;;;7.97;5.75;;;;;;;5.20;69.61;98270.66;5105510;28;20036;-71
2023/01/15 11:11:20;;;;;;;6.78;5.78;;;;;;;5.20;70.60;98278.53;5105621;28;20065;-71
2023/01/15 11:19:39;;;;;;;6.53;4.70;;;;;;;5.05;69.63;98267.88;5109986;28;20040;-72
2023/01/15 11:22:20;;;;;;;7.30;4.90;;;;;;;5.01;70.36;98260.22;5110183;28;20218;-72
2023/01/15 11:24:50;;;;;;;8.02;5.35;;;;;;;4.95;69.49;98273.66;5108759;28;20046;-71
2023/01/15 11:27:20;;;;;;;6.90;4.90;;;;;;;4.94;69.31;98248.31;5109726;28;20115;-72
2023/01/15 11:29:52;;;;;;;6.80;5.20;;;;;;;4.67;70.27;98221.63;5110050;28;20036;-71
2023/01/15 11:32:28;;;;;;;8.55;5.10;;;;;;;4.88;70.46;98262.56;5108721;28;20048;-72
2023/01/15 11:34:57;;;;;;;6.30;4.90;;;;;;;4.55;70.07;98207.34;5109809;28;20055;-71
2023/01/15 11:37:27;;;;;;;7.07;5.60;;;;;;;4.57;70.13;98223.00;5109939;28;20047;-71
2023/01/15 11:39:56;;;;;;;6.85;5.40;;;;;;;4.81;70.12;98261.16;5109661;28;20051;-72
2023/01/15 11:50:55;;;;;;;6.70;6.00;;;;;;;4.81;71.82;98272.53;5109503;28;20040;-71
2023/01/15 11:53:27;;;;;;;7.30;6.00;;;;;;;4.82;71.50;98266.34;5109660;28;20051;-71
2023/01/15 11:55:59;;;;;;;7.15;5.82;;;;;;;4.79;71.19;98257.78;5109211;28;20065;-71
2023/01/15 11:58:28;;;;;;;7.53;5.30;;;;;;;4.80;70.82;98257.69;5109104;28;20060;-71
2023/01/15 12:00:56;;;;;;;8.57;6.28;;;;;;;4.81;71.12;98248.03;5109040;28;20318;-71
2023/01/15 12:03:26;;;;;;;8.93;5.43;;;;;;;2.95;71.43;97946.88;5108244;28;20044;-71
2023/01/15 12:05:59;;;;;;;7.65;6.57;;;;;;;4.54;72.06;98218.75;5109171;28;20036;-71
2023/01/15 12:08:46;;;;;;;7.55;5.97;;;;;;;4.77;72.93;98234.22;5109310;28;20032;-72
2023/01/15 12:11:29;;;;;;;7.53;5.63;;;;;;;4.27;72.68;98144.88;5109340;28;20068;-70
2023/01/15 12:14:15;;;;;;;9.57;6.15;;;;;;;4.77;72.76;98233.38;5109250;28;20114;-71
2023/01/15 12:16:48;;;;;;;6.90;5.50;;;;;;;4.76;73.17;98221.16;5109076;28;20043;-71
2023/01/15 12:19:25;;;;;;;6.88;5.15;;;;;;;4.74;73.06;98225.66;5109039;28;20065;-72
2023/01/15 12:22:28;;;;;;;7.28;5.78;;;;;;;4.74;74.52;98213.38;5109143;28;20051;-72
2023/01/15 12:25:14;;;;;;;8.25;6.03;;;;;;;4.73;74.05;98211.69;5076651;28;20060;-71
2023/01/15 12:27:54;;;;;;;6.75;5.25;;;;;;;4.76;74.57;98227.28;5109005;28;20043;-71
2023/01/15 12:30:32;;;;;;;8.13;6.30;;;;;;;4.46;73.83;98174.53;5108394;28;20036;-72
2023/01/15 12:33:06;;;;;;;7.97;6.43;;;;;;;4.76;73.30;98213.31;5107540;28;20063;-71
2023/01/15 12:35:37;;;;;;;7.63;6.13;;;;;;;4.76;73.90;98211.53;5107579;28;20040;-72
2023/01/15 12:38:16;;;;;;;7.95;5.53;;;;;;;4.77;74.62;98201.88;5108319;28;20067;-71
2023/01/15 12:40:49;;;;;;;8.25;5.93;;;;;;;4.79;74.36;98211.38;5107758;28;20345;-72
2023/01/15 12:46:15;;;;;;;8.18;6.30;;;;;;;4.84;74.15;98213.75;5107846;28;20051;-73